Time;durP1;ratioP1;P1;durP2;ratioP2;P2;SDS_P1;SDS_P2;PMS_P1;PMS_P2;Temp;Humidity;BMP_temperature;BMP_pressure;BME280_temperature;BME280_humidity;BME280_pressure;Samples;Min_cycle;Max_cycle;Signal;HPM_P1;HPM_P2
2021/01/30 00:02:05;;;;;;;18.73;12.80;;;-0.90;99.90;;;;;;4882312;29;20395;-86
2021/01/30 00:04:30;;;;;;;16.67;12.83;;;-0.90;99.90;;;;;;4882220;29;20407;-85
2021/01/30 00:06:56;;;;;;;17.83;13.38;;;-0.80;99.90;;;;;;4863779;29;20416;-83
2021/01/30 00:09:22;;;;;;;18.95;12.95;;;-0.80;99.90;;;;;;4871784;29;20495;-83
2021/01/30 00:11:49;;;;;;;16.10;13.35;;;-0.80;99.90;;;;;;4875178;29;20418;-83
2021/01/30 00:14:22;;;;;;;18.40;12.73;;;-0.80;99.90;;;;;;4867524;29;20503;-84
2021/01/30 00:16:48;;;;;;;17.70;12.93;;;-0.80;99.90;;;;;;4879960;29;20414;-85
2021/01/30 00:19:14;;;;;;;20.60;13.03;;;-0.80;99.90;;;;;;4872715;29;20408;-87
2021/01/30 00:21:40;;;;;;;18.03;13.17;;;-0.90;99.90;;;;;;4848355;29;20399;-81
2021/01/30 00:24:06;;;;;;;20.30;13.83;;;-0.90;99.90;;;;;;4889959;29;20416;-80
2021/01/30 00:26:32;;;;;;;18.95;13.18;;;-0.90;99.90;;;;;;4859095;29;20429;-80
2021/01/30 00:28:58;;;;;;;17.98;13.48;;;-0.90;99.90;;;;;;4851534;29;20474;-80
2021/01/30 00:31:24;;;;;;;19.25;13.75;;;-0.90;99.90;;;;;;4873373;29;20420;-80
2021/01/30 00:33:49;;;;;;;17.87;13.23;;;-0.80;99.90;;;;;;4878937;29;20404;-79
2021/01/30 00:36:15;;;;;;;21.30;14.23;;;-0.90;99.90;;;;;;4849427;29;20421;-84
2021/01/30 00:38:41;;;;;;;19.33;13.30;;;-0.90;99.90;;;;;;4849102;29;20469;-86
2021/01/30 00:41:07;;;;;;;17.00;12.23;;;-0.90;99.90;;;;;;4849702;29;20876;-85
2021/01/30 00:43:33;;;;;;;16.60;13.60;;;-0.90;99.90;;;;;;4894254;29;20394;-87
2021/01/30 00:45:58;;;;;;;19.47;13.87;;;-0.90;99.90;;;;;;4885592;29;20492;-83
2021/01/30 00:48:24;;;;;;;20.40;14.73;;;-0.90;99.90;;;;;;4887492;29;20485;-84
2021/01/30 00:50:50;;;;;;;17.15;13.55;;;-0.90;99.90;;;;;;4868732;29;20986;-87
2021/01/30 00:53:16;;;;;;;21.02;14.60;;;-0.90;99.90;;;;;;4883395;29;20466;-83
2021/01/30 00:55:45;;;;;;;19.58;14.38;;;-0.90;99.90;;;;;;4862059;29;20441;-87
2021/01/30 00:58:11;;;;;;;22.38;14.40;;;-0.90;99.90;;;;;;4877149;29;20465;-78
2021/01/30 01:00:38;;;;;;;21.58;15.25;;;-0.90;99.90;;;;;;4864741;29;20419;-81
2021/01/30 01:03:12;;;;;;;20.65;14.95;;;-0.90;99.90;;;;;;4884521;29;20406;-84
2021/01/30 01:05:48;;;;;;;20.98;15.38;;;-0.90;99.90;;;;;;4870043;29;20415;-84
2021/01/30 01:08:14;;;;;;;22.33;15.43;;;-0.90;99.90;;;;;;4881461;29;20413;-80
2021/01/30 01:10:40;;;;;;;21.67;15.15;;;-0.90;99.90;;;;;;4861709;29;20411;-86
2021/01/30 01:13:05;;;;;;;22.27;16.17;;;-0.90;99.90;;;;;;4842903;29;21282;-83
2021/01/30 01:15:31;;;;;;;23.87;16.47;;;-0.90;99.90;;;;;;4847393;29;20454;-79
2021/01/30 01:17:57;;;;;;;25.67;16.48;;;-0.90;99.90;;;;;;4878450;29;20440;-84
2021/01/30 01:20:23;;;;;;;25.38;16.80;;;-0.90;99.90;;;;;;4898733;29;21854;-81
2021/01/30 01:22:49;;;;;;;20.43;15.47;;;-0.90;99.90;;;;;;4848555;29;20399;-86
2021/01/30 01:25:17;;;;;;;21.35;16.00;;;-1.00;99.90;;;;;;4874421;29;20427;-80
2021/01/30 01:27:43;;;;;;;21.95;15.32;;;-1.00;99.90;;;;;;4875951;29;20496;-87
2021/01/30 01:30:10;;;;;;;21.05;16.27;;;-1.00;99.90;;;;;;4885366;29;20437;-85
2021/01/30 01:32:35;;;;;;;20.10;15.65;;;-1.00;99.90;;;;;;4867962;29;20404;-83
2021/01/30 01:35:01;;;;;;;22.00;16.13;;;-1.00;99.90;;;;;;4880502;29;20406;-82
2021/01/30 01:37:27;;;;;;;21.00;15.50;;;-1.10;99.90;;;;;;4864442;29;20409;-82
2021/01/30 01:39:53;;;;;;;21.27;15.23;;;-1.10;99.90;;;;;;4881174;29;20458;-83
2021/01/30 01:42:21;;;;;;;19.85;14.05;;;-0.90;99.90;;;;;;4847884;29;20432;-80
2021/01/30 01:44:47;;;;;;;18.90;13.80;;;-1.10;99.90;;;;;;4858400;29;20432;-80
2021/01/30 01:47:20;;;;;;;18.05;13.20;;;-1.10;99.90;;;;;;4861404;29;20407;-79
2021/01/30 01:49:46;;;;;;;16.70;12.18;;;-1.20;99.90;;;;;;4881710;29;20411;-83
2021/01/30 01:52:25;;;;;;;17.90;13.50;;;-1.20;99.90;;;;;;4871025;29;20406;-87
2021/01/30 01:54:54;;;;;;;12.57;11.25;;;-1.20;99.90;;;;;;4884146;29;20408;-83
2021/01/30 01:57:20;;;;;;;13.98;11.07;;;-1.30;99.90;;;;;;4867045;29;20461;-84
2021/01/30 01:59:53;;;;;;;13.82;10.70;;;-1.20;99.90;;;;;;4861751;29;20421;-86
2021/01/30 02:02:20;;;;;;;14.25;11.02;;;-1.20;99.90;;;;;;4855976;29;20416;-84
2021/01/30 02:05:03;;;;;;;14.98;10.35;;;-1.20;99.90;;;;;;4874688;29;20421;-83
2021/01/30 02:07:29;;;;;;;14.35;10.00;;;-1.30;99.90;;;;;;4879998;29;20403;-84
2021/01/30 02:09:56;;;;;;;10.80;9.70;;;-1.30;99.90;;;;;;4860545;29;20395;-81
2021/01/30 02:12:24;;;;;;;11.07;8.77;;;-1.30;99.90;;;;;;4853370;29;20423;-81
2021/01/30 02:14:51;;;;;;;10.98;9.00;;;-1.30;99.90;;;;;;4866859;29;20541;-84
2021/01/30 02:17:19;;;;;;;12.25;9.65;;;-1.20;99.90;;;;;;4880928;29;20411;-82
2021/01/30 02:20:14;;;;;;;14.27;10.27;;;-1.30;99.90;;;;;;4894877;29;20495;-80
2021/01/30 02:22:49;;;;;;;12.90;10.23;;;-1.30;99.90;;;;;;4866404;29;20468;-82
2021/01/30 02:25:39;;;;;;;13.95;10.00;;;-1.30;99.90;;;;;;4881219;29;20430;-81
2021/01/30 02:28:21;;;;;;;14.02;10.30;;;-1.40;99.90;;;;;;4895247;29;20418;-84
2021/01/30 02:31:15;;;;;;;12.80;9.48;;;-1.40;99.90;;;;;;4861326;29;20433;-84
2021/01/30 02:33:56;;;;;;;11.50;9.30;;;-1.40;99.90;;;;;;4883732;29;20447;-83
2021/01/30 02:36:41;;;;;;;10.23;8.70;;;-1.40;99.90;;;;;;4878232;29;20448;-82
2021/01/30 02:39:28;;;;;;;11.23;8.52;;;-1.50;99.90;;;;;;4871202;29;20472;-81
2021/01/30 02:42:28;;;;;;;9.57;7.68;;;-1.50;99.90;;;;;;4895554;29;20403;-79
2021/01/30 02:44:56;;;;;;;8.23;7.07;;;-1.50;99.90;;;;;;4900925;29;20423;-87
2021/01/30 02:47:22;;;;;;;10.02;6.65;;;-1.50;99.90;;;;;;4867299;29;20402;-85
2021/01/30 02:49:59;;;;;;;8.05;6.28;;;-1.50;99.90;;;;;;4846891;29;20419;-82
2021/01/30 02:52:25;;;;;;;8.73;6.70;;;-1.50;99.90;;;;;;4868258;29;20399;-88
2021/01/30 02:54:55;;;;;;;8.63;6.80;;;-1.40;99.90;;;;;;4880393;29;21077;-80
2021/01/30 02:57:22;;;;;;;7.13;6.43;;;-1.50;99.90;;;;;;4875282;29;20437;-82
2021/01/30 02:59:49;;;;;;;7.80;6.63;;;-1.50;99.90;;;;;;4869907;29;20417;-81
2021/01/30 03:02:15;;;;;;;8.00;6.17;;;-1.50;99.90;;;;;;4881875;29;20492;-79
2021/01/30 03:04:41;;;;;;;6.80;5.20;;;-1.50;99.90;;;;;;4845058;29;20398;-78
2021/01/30 03:07:06;;;;;;;6.70;5.53;;;-1.50;99.90;;;;;;4874573;29;20432;-79
2021/01/30 03:10:04;;;;;;;7.10;6.13;;;-1.50;99.90;;;;;;4890451;29;20464;-79
2021/01/30 03:12:33;;;;;;;8.05;5.90;;;-1.60;99.90;;;;;;4873570;29;20756;-86
2021/01/30 03:15:08;;;;;;;6.07;5.30;;;-1.60;99.90;;;;;;4865443;29;20396;-83
2021/01/30 03:17:34;;;;;;;6.55;5.25;;;-1.60;99.90;;;;;;4847654;29;20433;-86
2021/01/30 03:19:59;;;;;;;6.85;5.47;;;-1.60;99.90;;;;;;4847228;29;20401;-85
2021/01/30 03:22:26;;;;;;;6.90;5.38;;;-1.60;99.90;;;;;;4874530;29;20409;-83
2021/01/30 03:24:52;;;;;;;6.78;5.80;;;-1.60;99.90;;;;;;4853317;29;20423;-84
2021/01/30 03:27:29;;;;;;;6.00;5.20;;;-1.60;99.90;;;;;;4854426;29;20411;-85
2021/01/30 03:29:56;;;;;;;9.73;6.13;;;-1.60;99.90;;;;;;4873962;29;20482;-87
2021/01/30 03:32:22;;;;;;;8.48;6.25;;;-1.50;99.90;;;;;;4872090;29;20407;-85
2021/01/30 03:34:48;;;;;;;8.23;6.30;;;-1.60;99.90;;;;;;4871766;29;20399;-88
2021/01/30 03:37:14;;;;;;;7.85;6.35;;;-1.50;99.90;;;;;;4855224;29;20785;-91
2021/01/30 03:39:40;;;;;;;9.10;6.50;;;-1.50;99.90;;;;;;4855229;29;20406;-86
2021/01/30 03:42:06;;;;;;;9.80;7.03;;;-1.40;99.90;;;;;;4901044;29;20442;-85
2021/01/30 03:44:32;;;;;;;8.07;6.60;;;-1.50;99.90;;;;;;4853998;29;20430;-87
2021/01/30 03:46:57;;;;;;;11.07;7.50;;;-1.50;99.90;;;;;;4853491;29;20415;-87
2021/01/30 03:49:23;;;;;;;11.10;7.17;;;-1.50;99.90;;;;;;4868079;29;20411;-83
2021/01/30 03:51:49;;;;;;;7.30;6.17;;;-1.40;99.90;;;;;;4853952;29;20399;-86
2021/01/30 03:54:15;;;;;;;8.52;6.65;;;-1.50;99.90;;;;;;4870865;29;20383;-85
2021/01/30 03:56:44;;;;;;;9.07;7.10;;;-1.50;99.90;;;;;;4855322;29;20976;-82
2021/01/30 03:59:10;;;;;;;8.35;6.50;;;-1.50;99.90;;;;;;4872620;29;20402;-83
2021/01/30 04:01:35;;;;;;;9.02;6.80;;;-1.50;99.90;;;;;;4882400;29;20397;-88
2021/01/30 04:04:01;;;;;;;9.45;6.65;;;-1.50;99.90;;;;;;4871997;29;20403;-83
2021/01/30 04:06:27;;;;;;;8.93;6.87;;;-1.50;99.90;;;;;;4854767;29;20415;-85
2021/01/30 04:08:52;;;;;;;9.43;6.97;;;-1.60;99.90;;;;;;4855872;29;20535;-82
2021/01/30 04:11:24;;;;;;;8.90;6.88;;;-1.60;99.90;;;;;;4871828;29;20450;-85
2021/01/30 04:13:50;;;;;;;6.95;6.25;;;-1.50;99.90;;;;;;4890002;29;20407;-82
2021/01/30 04:16:16;;;;;;;9.33;6.50;;;-1.50;99.90;;;;;;4873587;29;20462;-89
2021/01/30 04:18:41;;;;;;;10.33;6.90;;;-1.50;99.90;;;;;;4861529;29;20426;-82
2021/01/30 04:21:07;;;;;;;7.55;6.47;;;-1.50;99.90;;;;;;4861618;29;20410;-88
2021/01/30 04:23:33;;;;;;;9.13;6.60;;;-1.50;99.90;;;;;;4865194;29;20469;-81
2021/01/30 04:26:00;;;;;;;8.02;6.65;;;-1.50;99.90;;;;;;4848709;29;22333;-83
2021/01/30 04:28:26;;;;;;;7.57;6.73;;;-1.50;99.90;;;;;;4851324;29;20399;-86
2021/01/30 04:30:52;;;;;;;8.52;6.75;;;-1.50;99.90;;;;;;4865864;29;20796;-80
2021/01/30 04:33:17;;;;;;;8.32;6.82;;;-1.60;99.90;;;;;;4881105;29;20403;-82
2021/01/30 04:35:43;;;;;;;6.60;5.97;;;-1.60;99.90;;;;;;4852224;29;20403;-82
2021/01/30 04:38:09;;;;;;;9.13;6.17;;;-1.60;99.90;;;;;;4867969;29;20486;-85
2021/01/30 04:40:45;;;;;;;8.47;6.00;;;-1.50;99.90;;;;;;4850566;29;20421;-83
2021/01/30 04:43:36;;;;;;;7.38;6.15;;;-1.50;99.90;;;;;;4864222;29;20444;-82
2021/01/30 04:46:20;;;;;;;8.45;5.95;;;-1.50;99.90;;;;;;4868300;29;21003;-84
2021/01/30 04:48:59;;;;;;;7.03;5.88;;;-1.60;99.90;;;;;;4899396;29;20411;-83
2021/01/30 04:51:48;;;;;;;6.75;5.25;;;-1.60;99.90;;;;;;4865835;29;20417;-81
2021/01/30 04:54:31;;;;;;;7.20;5.40;;;-1.60;99.90;;;;;;4883032;29;20415;-81
2021/01/30 04:57:34;;;;;;;7.32;5.35;;;-1.50;99.90;;;;;;4892008;29;20406;-81
2021/01/30 05:00:19;;;;;;;5.95;5.20;;;-1.60;99.90;;;;;;4855360;29;21020;-84
2021/01/30 05:03:02;;;;;;;7.07;5.85;;;-1.50;99.90;;;;;;4875842;29;20449;-82
2021/01/30 05:05:29;;;;;;;7.40;5.28;;;-1.60;99.90;;;;;;4881668;29;20518;-86
2021/01/30 05:07:59;;;;;;;5.93;5.33;;;-1.60;99.90;;;;;;4875820;29;20918;-84
2021/01/30 05:10:41;;;;;;;9.63;5.60;;;-1.60;99.90;;;;;;4897281;29;20454;-82
2021/01/30 05:13:21;;;;;;;6.63;5.70;;;-1.60;99.90;;;;;;4873717;29;20423;-81
2021/01/30 05:15:52;;;;;;;7.00;5.93;;;-1.50;99.90;;;;;;4862247;29;20435;-84
2021/01/30 05:18:33;;;;;;;6.70;5.32;;;-1.60;99.90;;;;;;4882023;29;20443;-80
2021/01/30 05:21:14;;;;;;;7.90;5.65;;;-1.60;99.90;;;;;;4894035;29;20502;-83
2021/01/30 05:23:42;;;;;;;8.13;6.00;;;-1.70;99.90;;;;;;4887327;29;20426;-80
2021/01/30 05:26:09;;;;;;;6.15;5.55;;;-1.70;99.90;;;;;;4875632;29;20415;-81
2021/01/30 05:28:37;;;;;;;7.32;5.65;;;-1.70;99.90;;;;;;4881579;29;20421;-80
2021/01/30 05:31:08;;;;;;;7.43;5.78;;;-1.80;99.90;;;;;;4879576;29;20415;-81
2021/01/30 05:34:06;;;;;;;7.32;5.75;;;-1.80;99.90;;;;;;4881723;29;20406;-84
2021/01/30 05:37:00;;;;;;;6.18;5.57;;;-1.80;99.90;;;;;;4892398;29;20461;-81
2021/01/30 05:39:30;;;;;;;7.70;5.95;;;-1.70;99.90;;;;;;4876043;29;20408;-80
2021/01/30 05:42:08;;;;;;;5.97;5.38;;;-1.70;99.90;;;;;;4865485;29;20432;-85
2021/01/30 05:44:44;;;;;;;6.90;5.60;;;-1.70;99.90;;;;;;4876781;29;20415;-81
2021/01/30 05:47:18;;;;;;;6.60;5.20;;;-1.70;99.90;;;;;;4878353;29;20538;-83
2021/01/30 05:50:09;;;;;;;7.05;5.45;;;-1.70;99.90;;;;;;4864368;29;20506;-82
2021/01/30 05:52:36;;;;;;;7.35;5.68;;;-1.80;99.90;;;;;;4878154;29;20438;-82
2021/01/30 05:55:03;;;;;;;6.65;5.53;;;-1.70;99.90;;;;;;4863645;29;20415;-81
2021/01/30 05:57:29;;;;;;;6.38;5.45;;;-1.80;99.90;;;;;;4850841;29;20407;-81
2021/01/30 05:59:58;;;;;;;7.10;5.60;;;-1.80;99.90;;;;;;4848264;29;20477;-81
2021/01/30 06:02:28;;;;;;;8.75;6.00;;;-1.80;99.90;;;;;;4870486;29;20404;-82
2021/01/30 06:04:54;;;;;;;7.55;6.20;;;-1.80;99.90;;;;;;4878066;29;20423;-81
2021/01/30 06:07:22;;;;;;;7.63;6.07;;;-1.80;99.90;;;;;;4862799;29;20407;-81
2021/01/30 06:09:48;;;;;;;6.93;6.17;;;-1.80;99.90;;;;;;4894688;29;20880;-82
2021/01/30 06:12:20;;;;;;;8.47;7.27;;;-1.80;99.90;;;;;;4860525;29;20546;-83
2021/01/30 06:14:45;;;;;;;11.65;6.97;;;-1.80;99.90;;;;;;4878341;29;20450;-80
2021/01/30 06:17:16;;;;;;;8.68;6.70;;;-1.90;99.90;;;;;;4877461;29;20428;-80
2021/01/30 06:19:42;;;;;;;8.15;7.03;;;-1.90;99.90;;;;;;4880485;29;20407;-81
2021/01/30 06:22:16;;;;;;;8.80;7.43;;;-1.90;99.90;;;;;;4896583;29;20410;-81
2021/01/30 06:24:45;;;;;;;10.93;8.07;;;-1.90;99.90;;;;;;4876848;29;21033;-81
2021/01/30 06:27:24;;;;;;;10.13;7.67;;;-1.90;99.90;;;;;;4882580;29;20459;-81
2021/01/30 06:29:52;;;;;;;8.45;7.55;;;-1.90;99.90;;;;;;4866636;29;20412;-79
2021/01/30 06:32:20;;;;;;;11.00;9.10;;;-1.90;99.90;;;;;;4892825;29;20420;-82
2021/01/30 06:34:55;;;;;;;9.45;7.97;;;-1.90;99.90;;;;;;4894913;29;20418;-85
2021/01/30 06:37:42;;;;;;;10.40;8.53;;;-1.80;99.90;;;;;;4865341;29;20442;-81
2021/01/30 06:40:22;;;;;;;9.40;8.13;;;-1.80;99.90;;;;;;4879850;29;20489;-82
2021/01/30 06:42:49;;;;;;;9.18;7.38;;;-1.90;99.90;;;;;;4877565;29;20415;-83
2021/01/30 06:45:25;;;;;;;9.45;7.97;;;-1.80;99.90;;;;;;4892512;29;20833;-80
2021/01/30 06:47:51;;;;;;;11.60;8.52;;;-1.90;99.90;;;;;;4879313;29;20437;-81
2021/01/30 06:50:19;;;;;;;9.67;8.13;;;-1.90;99.90;;;;;;4877025;29;20420;-79
2021/01/30 06:52:45;;;;;;;10.40;8.75;;;-1.90;99.90;;;;;;4863328;29;20531;-80
2021/01/30 06:55:12;;;;;;;11.40;8.63;;;-1.90;99.90;;;;;;4878309;29;20551;-80
2021/01/30 06:57:42;;;;;;;10.32;7.97;;;-1.80;99.90;;;;;;4849381;29;20534;-81
2021/01/30 07:00:17;;;;;;;11.95;8.25;;;-1.80;99.90;;;;;;4870815;29;20938;-81
2021/01/30 07:02:47;;;;;;;11.38;8.98;;;-1.80;99.90;;;;;;4897274;29;20498;-80
2021/01/30 07:05:30;;;;;;;10.45;8.50;;;-1.80;99.90;;;;;;4873133;29;20433;-80
2021/01/30 07:08:20;;;;;;;9.35;8.30;;;-1.80;99.90;;;;;;4888798;29;20436;-81
2021/01/30 07:11:04;;;;;;;11.00;8.10;;;-1.80;99.90;;;;;;4877744;29;20946;-78
2021/01/30 07:13:30;;;;;;;9.52;8.52;;;-1.80;99.90;;;;;;4885165;29;20478;-80
2021/01/30 07:16:29;;;;;;;10.77;9.17;;;-1.70;99.90;;;;;;4883570;29;20488;-78
2021/01/30 07:19:20;;;;;;;9.73;8.43;;;-1.70;99.90;;;;;;4889091;29;20426;-83
2021/01/30 07:21:49;;;;;;;11.27;8.93;;;-1.70;99.90;;;;;;4849291;29;20402;-79
2021/01/30 07:24:22;;;;;;;10.75;8.75;;;-1.80;99.90;;;;;;4857375;29;20412;-78
2021/01/30 07:27:02;;;;;;;10.47;8.67;;;-1.80;99.90;;;;;;4871502;29;20423;-80
2021/01/30 07:29:47;;;;;;;12.90;9.67;;;-1.80;99.90;;;;;;4878409;29;20426;-77
2021/01/30 07:32:27;;;;;;;12.30;8.95;;;-1.70;99.90;;;;;;4891163;29;20415;-79
2021/01/30 07:35:14;;;;;;;9.57;8.57;;;-1.70;99.90;;;;;;4894933;29;20442;-80
2021/01/30 07:37:55;;;;;;;9.82;8.00;;;-1.70;99.90;;;;;;4878437;29;20419;-81
2021/01/30 07:40:41;;;;;;;9.45;8.35;;;-1.60;99.90;;;;;;4883364;29;20440;-83
2021/01/30 07:43:12;;;;;;;10.98;8.18;;;-1.60;99.90;;;;;;4872992;29;20410;-78
2021/01/30 07:45:40;;;;;;;11.00;8.45;;;-1.60;99.90;;;;;;4893039;29;20416;-80
2021/01/30 07:48:15;;;;;;;9.60;7.82;;;-1.60;99.90;;;;;;4882722;29;20847;-79
2021/01/30 07:50:50;;;;;;;8.83;7.03;;;-1.60;99.90;;;;;;4875702;29;20472;-88
2021/01/30 07:53:21;;;;;;;8.18;7.22;;;-1.50;99.90;;;;;;4850107;29;20427;-80
2021/01/30 07:55:59;;;;;;;7.90;7.10;;;-1.40;99.90;;;;;;4863517;29;20413;-82
2021/01/30 07:58:38;;;;;;;9.10;7.35;;;-1.40;99.90;;;;;;4881439;29;20497;-82
2021/01/30 08:01:09;;;;;;;10.00;7.22;;;-1.30;99.90;;;;;;4881988;29;21117;-82
2021/01/30 08:03:47;;;;;;;8.68;7.22;;;-1.20;99.90;;;;;;4889605;29;20413;-79
2021/01/30 08:06:24;;;;;;;8.23;6.68;;;-1.20;99.90;;;;;;4903373;29;20427;-82
2021/01/30 08:09:27;;;;;;;8.30;6.80;;;-1.20;99.90;;;;;;4896723;29;20426;-80
2021/01/30 08:12:03;;;;;;;8.60;6.78;;;-1.20;99.90;;;;;;4889725;29;20471;-81
2021/01/30 08:14:53;;;;;;;7.77;6.57;;;-1.10;99.90;;;;;;4864202;29;20407;-81
2021/01/30 08:17:33;;;;;;;8.40;7.00;;;-1.00;99.90;;;;;;4881750;29;20407;-82
2021/01/30 08:20:07;;;;;;;9.77;7.28;;;-0.90;99.90;;;;;;4877878;29;20441;-80
2021/01/30 08:22:44;;;;;;;8.15;7.03;;;-0.90;99.90;;;;;;4882531;29;20420;-80
2021/01/30 08:25:31;;;;;;;8.18;6.97;;;-0.80;99.90;;;;;;4878829;29;20426;-84
2021/01/30 08:28:02;;;;;;;8.98;7.18;;;-0.80;99.90;;;;;;4881550;29;20753;-81
2021/01/30 08:30:28;;;;;;;8.45;6.57;;;-0.90;99.90;;;;;;4871719;29;20443;-78
2021/01/30 08:32:59;;;;;;;7.75;6.47;;;-0.80;99.90;;;;;;4871405;29;20502;-78
2021/01/30 08:35:24;;;;;;;7.93;6.47;;;-0.80;99.90;;;;;;4891964;29;20499;-78
2021/01/30 08:38:06;;;;;;;8.82;7.03;;;-0.70;99.90;;;;;;4892739;29;20410;-78
2021/01/30 08:40:52;;;;;;;8.18;6.57;;;-0.80;99.90;;;;;;4876256;29;21030;-79
2021/01/30 08:43:32;;;;;;;7.35;6.63;;;-0.70;99.90;;;;;;4879082;29;20971;-78
2021/01/30 08:46:24;;;;;;;8.65;6.30;;;-0.70;99.90;;;;;;4906453;29;20820;-80
2021/01/30 08:49:01;;;;;;;8.70;6.80;;;-0.70;99.90;;;;;;4886011;29;20418;-79
2021/01/30 08:51:27;;;;;;;10.07;7.32;;;-0.70;99.90;;;;;;4878433;29;20780;-76
2021/01/30 08:53:52;;;;;;;9.03;6.37;;;-0.70;99.90;;;;;;4865153;29;20420;-78
2021/01/30 08:56:49;;;;;;;8.32;6.63;;;-0.60;99.90;;;;;;4885791;29;20419;-79
2021/01/30 08:59:45;;;;;;;7.63;6.80;;;-0.50;99.90;;;;;;4891352;29;20758;-79
2021/01/30 09:02:34;;;;;;;8.88;6.45;;;-0.40;99.90;;;;;;4874684;29;20494;-77
2021/01/30 09:05:09;;;;;;;8.27;6.53;;;-0.30;99.90;;;;;;4876096;29;20638;-78
2021/01/30 09:07:44;;;;;;;6.63;5.93;;;-0.20;99.90;;;;;;4863773;29;20963;-81
2021/01/30 09:10:28;;;;;;;9.88;6.47;;;-0.10;99.90;;;;;;4890685;29;20809;-76
2021/01/30 09:13:03;;;;;;;8.18;6.45;;;0.00;99.90;;;;;;4888615;29;20412;-77
2021/01/30 09:15:38;;;;;;;5.90;5.20;;;0.20;99.90;;;;;;4883078;29;20555;-77
2021/01/30 09:18:22;;;;;;;6.33;5.53;;;0.20;99.90;;;;;;4883204;29;20413;-80
2021/01/30 09:21:06;;;;;;;6.72;5.32;;;0.50;99.90;;;;;;4891857;29;20506;-77
2021/01/30 09:23:47;;;;;;;8.97;5.47;;;0.60;99.90;;;;;;4858065;29;20508;-82
2021/01/30 09:26:26;;;;;;;7.70;5.78;;;0.80;99.90;;;;;;4885905;29;20516;-77
2021/01/30 09:28:56;;;;;;;7.22;5.80;;;1.00;99.90;;;;;;4874774;29;20412;-76
2021/01/30 09:31:21;;;;;;;7.72;6.40;;;1.10;99.90;;;;;;4875402;29;20442;-78
2021/01/30 09:34:00;;;;;;;10.07;8.15;;;1.20;99.90;;;;;;4860785;29;20410;-76
2021/01/30 09:36:31;;;;;;;10.45;7.55;;;1.50;99.90;;;;;;4886742;29;20423;-77
2021/01/30 09:39:00;;;;;;;9.07;7.27;;;1.60;99.90;;;;;;4859014;29;20404;-77
2021/01/30 09:41:30;;;;;;;9.02;6.30;;;1.80;99.90;;;;;;4873907;29;20428;-77
2021/01/30 09:44:15;;;;;;;8.23;6.50;;;2.20;99.90;;;;;;4892645;29;20555;-76
2021/01/30 09:46:42;;;;;;;6.72;5.32;;;2.20;99.90;;;;;;4863037;29;20450;-77
2021/01/30 09:49:10;;;;;;;7.05;5.38;;;1.80;99.90;;;;;;4890452;29;20909;-76
2021/01/30 09:51:41;;;;;;;7.40;6.18;;;1.80;99.90;;;;;;4846687;29;20427;-76
2021/01/30 09:54:07;;;;;;;6.85;5.20;;;1.70;99.90;;;;;;4872733;29;20424;-77
2021/01/30 09:56:35;;;;;;;5.72;5.13;;;1.60;99.90;;;;;;4876084;29;20422;-76
2021/01/30 09:59:01;;;;;;;7.25;5.30;;;1.60;99.90;;;;;;4857441;29;20462;-76
2021/01/30 10:01:36;;;;;;;4.90;4.45;;;1.70;99.90;;;;;;4891763;29;20443;-78
2021/01/30 10:04:21;;;;;;;6.55;5.88;;;1.60;99.90;;;;;;4881809;29;20433;-76
2021/01/30 10:06:47;;;;;;;5.93;5.20;;;1.60;99.90;;;;;;4872993;29;20496;-76
2021/01/30 10:09:22;;;;;;;6.03;5.27;;;1.40;99.90;;;;;;4865608;29;20413;-78
2021/01/30 10:11:54;;;;;;;7.78;5.75;;;1.10;99.90;;;;;;4853270;29;20413;-81
2021/01/30 10:14:20;;;;;;;7.40;5.82;;;1.20;99.90;;;;;;4871862;29;20419;-77
2021/01/30 10:17:00;;;;;;;6.28;5.50;;;1.10;99.90;;;;;;4874630;29;20434;-77
2021/01/30 10:19:30;;;;;;;6.07;5.30;;;1.00;99.90;;;;;;4856525;29;20447;-80
2021/01/30 10:21:55;;;;;;;5.93;5.32;;;0.90;99.90;;;;;;4882259;29;20498;-77
2021/01/30 10:24:27;;;;;;;5.82;5.22;;;0.80;99.90;;;;;;4871421;29;20484;-77
2021/01/30 10:26:55;;;;;;;7.03;6.30;;;1.00;99.90;;;;;;4860578;29;20432;-76
2021/01/30 10:29:22;;;;;;;6.65;5.35;;;1.00;99.90;;;;;;4866652;29;20912;-76
2021/01/30 10:32:14;;;;;;;6.30;4.67;;;1.10;99.90;;;;;;4859313;29;20409;-76
2021/01/30 10:34:43;;;;;;;7.15;4.90;;;1.20;99.90;;;;;;4857874;29;20411;-77
2021/01/30 10:37:13;;;;;;;6.57;4.97;;;1.30;99.90;;;;;;4840292;29;20773;-77
2021/01/30 10:39:43;;;;;;;6.28;5.45;;;1.40;99.90;;;;;;4881177;29;20537;-77
2021/01/30 10:42:13;;;;;;;5.83;4.87;;;1.40;99.90;;;;;;4863195;29;20409;-77
2021/01/30 10:44:42;;;;;;;5.65;5.03;;;1.30;99.90;;;;;;4885728;29;20434;-78
2021/01/30 10:47:08;;;;;;;6.70;5.10;;;1.50;99.90;;;;;;4858383;29;20490;-77
2021/01/30 10:49:35;;;;;;;7.63;5.63;;;1.30;99.90;;;;;;4859065;29;20611;-77
2021/01/30 10:52:14;;;;;;;6.30;5.07;;;1.20;99.90;;;;;;4881961;29;20422;-77
2021/01/30 10:54:41;;;;;;;5.90;5.28;;;1.30;99.90;;;;;;4875887;29;20483;-77
2021/01/30 10:57:22;;;;;;;7.55;5.50;;;1.50;99.90;;;;;;4855013;29;20396;-77
2021/01/30 10:59:53;;;;;;;9.25;5.95;;;1.80;99.90;;;;;;4874837;29;20441;-76
2021/01/30 11:02:25;;;;;;;6.35;5.35;;;1.50;99.90;;;;;;4864182;29;20393;-77
2021/01/30 11:05:11;;;;;;;7.03;5.90;;;1.40;99.90;;;;;;4874825;29;20395;-77
2021/01/30 11:08:16;;;;;;;7.32;5.97;;;1.50;99.90;;;;;;4873289;29;20810;-77
2021/01/30 11:10:43;;;;;;;8.13;5.85;;;1.60;99.90;;;;;;4826905;29;20466;-78
2021/01/30 11:13:24;;;;;;;7.30;5.87;;;1.50;99.90;;;;;;4860893;29;20441;-79
2021/01/30 11:15:50;;;;;;;6.60;5.75;;;1.50;99.90;;;;;;4878239;29;20448;-78
2021/01/30 11:18:28;;;;;;;11.97;7.40;;;1.40;99.90;;;;;;4856956;29;20900;-78
2021/01/30 11:20:54;;;;;;;8.43;6.65;;;1.20;99.90;;;;;;4887985;29;20413;-79
2021/01/30 11:23:48;;;;;;;7.05;6.03;;;1.20;99.90;;;;;;4867861;29;20423;-81
2021/01/30 11:26:38;;;;;;;7.75;6.22;;;1.30;99.90;;;;;;4891112;29;20419;-77
2021/01/30 11:29:07;;;;;;;8.50;6.50;;;1.50;99.90;;;;;;4861803;29;20419;-78
2021/01/30 11:31:36;;;;;;;7.63;5.50;;;1.50;99.90;;;;;;4874949;29;20413;-82
2021/01/30 11:34:02;;;;;;;8.17;5.70;;;1.50;99.90;;;;;;4891288;29;20409;-81
2021/01/30 11:36:28;;;;;;;6.57;5.18;;;1.50;99.90;;;;;;4838831;29;20918;-78
2021/01/30 11:38:58;;;;;;;6.67;4.40;;;1.70;99.90;;;;;;4842346;29;20416;-76
2021/01/30 11:41:24;;;;;;;7.15;4.20;;;2.00;99.90;;;;;;4890023;29;20466;-76
2021/01/30 11:43:50;;;;;;;6.85;4.80;;;2.20;99.90;;;;;;4876572;29;20414;-78
2021/01/30 11:46:17;;;;;;;8.25;5.15;;;2.40;99.90;;;;;;4852956;29;20427;-78
2021/01/30 11:48:42;;;;;;;7.13;5.00;;;2.50;99.90;;;;;;4855738;29;20476;-77
2021/01/30 11:51:11;;;;;;;5.88;4.50;;;2.40;99.90;;;;;;4859238;29;20403;-77
2021/01/30 11:53:37;;;;;;;6.38;5.25;;;2.40;99.90;;;;;;4863356;29;20403;-78
2021/01/30 11:56:03;;;;;;;6.07;5.17;;;2.60;99.90;;;;;;4873043;29;20417;-79
2021/01/30 11:58:29;;;;;;;5.80;4.93;;;2.80;99.90;;;;;;4875168;29;20415;-79
2021/01/30 12:00:54;;;;;;;8.50;5.70;;;2.60;99.90;;;;;;4888844;29;20406;-77
2021/01/30 12:03:25;;;;;;;8.40;5.57;;;2.20;99.90;;;;;;4867488;29;20462;-78
2021/01/30 12:05:51;;;;;;;6.82;5.32;;;2.00;99.90;;;;;;4835798;29;20493;-78
2021/01/30 12:08:17;;;;;;;6.25;5.32;;;2.00;99.90;;;;;;4844588;29;20419;-76
2021/01/30 12:10:42;;;;;;;8.65;6.03;;;1.90;99.90;;;;;;4887289;29;20946;-78
2021/01/30 12:13:08;;;;;;;7.82;5.95;;;1.80;99.90;;;;;;4878379;29;20437;-82
2021/01/30 12:15:34;;;;;;;15.43;8.10;;;1.50;99.90;;;;;;4863314;29;20399;-80
2021/01/30 12:17:59;;;;;;;23.08;12.88;;;1.40;99.90;;;;;;4879017;29;20403;-80
2021/01/30 12:20:27;;;;;;;10.70;8.10;;;1.50;99.90;;;;;;4864198;29;20403;-80
2021/01/30 12:22:55;;;;;;;11.40;7.55;;;1.60;99.90;;;;;;4872269;29;20446;-78
2021/01/30 12:25:21;;;;;;;8.55;6.60;;;1.60;99.90;;;;;;4865902;29;20439;-80
2021/01/30 12:27:51;;;;;;;15.00;8.93;;;1.60;99.90;;;;;;4851020;29;20426;-82
2021/01/30 12:30:18;;;;;;;7.60;5.22;;;1.70;99.90;;;;;;4876754;29;20431;-79
2021/01/30 12:32:44;;;;;;;7.28;5.57;;;1.50;99.90;;;;;;4865785;29;20416;-78
2021/01/30 12:35:11;;;;;;;6.75;5.22;;;1.50;99.90;;;;;;4878142;29;20398;-79
2021/01/30 12:37:37;;;;;;;5.97;5.18;;;1.40;99.90;;;;;;4846698;29;20586;-79
2021/01/30 12:40:04;;;;;;;7.45;5.22;;;1.40;99.90;;;;;;4861959;29;20407;-80
2021/01/30 12:42:29;;;;;;;5.75;4.38;;;1.20;99.90;;;;;;4874152;29;20903;-77
2021/01/30 12:44:55;;;;;;;6.23;4.70;;;1.20;99.90;;;;;;4875863;29;20415;-79
2021/01/30 12:47:25;;;;;;;6.43;4.85;;;1.20;99.90;;;;;;4858643;29;20395;-79
2021/01/30 12:49:51;;;;;;;6.05;4.75;;;1.30;99.90;;;;;;4853126;29;20426;-78
2021/01/30 12:52:17;;;;;;;5.50;4.88;;;1.40;99.90;;;;;;4865483;29;20437;-76
2021/01/30 12:54:43;;;;;;;4.82;4.20;;;1.30;99.90;;;;;;4874904;29;20407;-77
2021/01/30 12:57:09;;;;;;;6.07;4.37;;;1.30;99.90;;;;;;4862323;29;20399;-85
2021/01/30 12:59:34;;;;;;;6.40;4.63;;;1.20;99.90;;;;;;4846187;29;20422;-77
2021/01/30 13:02:00;;;;;;;6.10;4.38;;;1.30;99.90;;;;;;4876678;29;20427;-78
2021/01/30 13:04:26;;;;;;;5.25;4.00;;;1.40;99.90;;;;;;4895433;29;20983;-77
2021/01/30 13:06:52;;;;;;;5.40;4.10;;;1.50;99.90;;;;;;4891521;29;20438;-77
2021/01/30 13:09:20;;;;;;;6.28;4.78;;;1.50;99.90;;;;;;4873181;29;20428;-77
2021/01/30 13:11:46;;;;;;;5.15;4.38;;;1.50;99.90;;;;;;4887036;29;20468;-81